Joaquin, Texas
Current Conditions -  °F | °C
As of 1:56 PM on Tuesday 25 Nov 2014 (Local Time) from KSHV Reporting Station
Few Clouds Few Clouds  
Wind Chill: 15°   Ceiling: Unl
Heat Index: 15°   Visibility: 10mi
Dew Point: -4°   Wind: 6mph
Humidity: 26%   Direction: NA
Pressure: 30.2"   Gusts: NA
Location:  31.97°N, 94.05°W
Report Text: KSHV 251956Z VRB05KT 10SM FEW250 15/M04 A3020 RMK AO2 SLP225 T01501044
Loading
Personal Weather Stations






























Interactive Weather Map New forecast layout! Learn more

10-Day Weather Forecast

Advertisements
Track Severe Weather on mobile